Time,TemperatureF,DewpointF,PressureIn,WindDirection,WindDirectionDegrees,WindSpeedMPH,WindSpeedGustMPH,Humidity,HourlyPrecipIn,Conditions,Clouds,dailyrainin,SoftwareType,DateUTC
2013-12-29 00:23:00,71.0,71.0,30.01,North,0,0.0,0.0,100,99.99,,,-99.99,,2013-12-29 05:23:00,
2013-12-29 00:43:00,71.0,71.0,30.01,North,0,0.0,0.0,100,99.99,,,-99.99,,2013-12-29 05:43:00,
2013-12-29 00:53:00,71.0,71.0,30.01,North,0,0.0,0.0,100,99.99,,,-99.99,,2013-12-29 05:53:00,
2013-12-29 01:23:00,71.0,71.0,30.01,North,0,0.0,0.0,100,99.99,,,-99.99,,2013-12-29 06:23:00,
2013-12-29 01:52:00,70.0,70.0,30.00,North,0,0.0,0.0,100,99.99,,,-99.99,,2013-12-29 06:52:00,
2013-12-29 02:02:00,70.0,70.0,30.00,North,0,0.0,0.0,100,99.99,,,-99.99,,2013-12-29 07:02:00,
2013-12-29 02:22:00,70.0,70.0,29.99,North,0,0.0,0.0,100,99.99,,,-99.99,,2013-12-29 07:22:00,
2013-12-29 02:52:00,70.0,70.0,29.97,North,0,0.0,0.0,100,99.99,,,-99.99,,2013-12-29 07:52:00,
2013-12-29 03:22:00,70.0,70.0,29.97,North,0,0.0,0.0,100,99.99,,,-99.99,,2013-12-29 08:22:00,
2013-12-29 03:42:00,70.0,70.0,29.95,North,0,0.0,0.0,100,99.99,,,-99.99,,2013-12-29 08:42:00,
2013-12-29 03:52:00,70.0,70.0,29.95,North,0,0.0,0.0,100,99.99,,,-99.99,,2013-12-29 08:52:00,
2013-12-29 04:22:00,71.0,71.0,29.94,North,0,0.0,0.0,100,99.99,,,-99.99,,2013-12-29 09:22:00,
2013-12-29 04:53:00,71.0,71.0,29.94,North,0,0.0,0.0,100,99.99,,,-99.99,,2013-12-29 09:53:00,
2013-12-29 05:23:00,71.0,71.0,29.94,North,0,0.0,0.0,100,99.99,,,-99.99,,2013-12-29 10:23:00,
2013-12-29 05:53:00,71.0,71.0,29.95,North,0,0.0,0.0,100,99.99,,,-99.99,,2013-12-29 10:53:00,
2013-12-29 06:22:00,72.0,72.0,29.98,North,0,0.0,0.0,100,99.99,,,-99.99,,2013-12-29 11:22:00,
2013-12-29 06:53:00,72.0,72.0,29.97,South,170,10.0,16.0,100,99.99,,,-99.99,,2013-12-29 11:53:00,
2013-12-29 07:22:00,72.0,72.0,29.96,South,183,10.0,15.0,100,99.99,,,-99.99,,2013-12-29 12:22:00,
2013-12-29 07:52:00,72.0,72.0,29.95,South,184,11.0,18.0,100,99.99,,,-99.99,,2013-12-29 12:52:00,
2013-12-29 08:22:00,72.0,72.0,29.98,South,179,8.0,15.0,100,99.99,,,-99.99,,2013-12-29 13:22:00,
2013-12-29 08:53:00,72.0,72.0,29.98,South,170,8.0,15.0,100,99.99,,,-99.99,,2013-12-29 13:53:00,
2013-12-29 09:22:00,72.0,72.0,29.97,South,177,9.0,14.0,100,99.99,,,-99.99,,2013-12-29 14:22:00,
2013-12-29 09:52:00,72.0,72.0,29.99,South,176,5.0,12.0,100,99.99,,,-99.99,,2013-12-29 14:52:00,
2013-12-29 10:21:00,72.0,72.0,30.01,SW,231,5.0,10.0,100,99.99,,,-99.99,,2013-12-29 15:21:00,
2013-12-29 10:53:00,72.0,72.0,30.01,WSW,245,4.0,8.0,100,99.99,,,-99.99,,2013-12-29 15:53:00,
2013-12-29 11:23:00,73.0,73.0,30.00,WSW,242,2.0,5.0,100,99.99,,,-99.99,,2013-12-29 16:23:00,
2013-12-29 11:53:00,74.0,74.0,29.98,South,179,3.0,6.0,100,99.99,,,-99.99,,2013-12-29 16:53:00,
2013-12-29 12:22:00,75.0,75.0,29.98,SW,218,4.0,9.0,100,99.99,,,-99.99,,2013-12-29 17:22:00,
2013-12-29 12:52:00,76.0,76.0,29.96,SSW,211,4.0,8.0,100,99.99,,,-99.99,,2013-12-29 17:52:00,
2013-12-29 13:22:00,77.0,77.0,29.93,SSW,208,5.0,7.0,100,99.99,,,-99.99,,2013-12-29 18:22:00,
2013-12-29 13:53:00,77.0,77.0,29.93,WSW,245,6.0,15.0,99,99.99,,,-99.99,,2013-12-29 18:53:00,
2013-12-29 14:21:00,76.0,76.0,29.90,SW,225,6.0,13.0,100,99.99,,,-99.99,,2013-12-29 19:21:00,
2013-12-29 14:52:00,77.0,75.0,29.91,SW,229,9.0,18.0,95,99.99,,,-99.99,,2013-12-29 19:52:00,
2013-12-29 15:22:00,78.0,73.0,29.90,SW,218,9.0,22.0,86,99.99,,,-99.99,,2013-12-29 20:22:00,
2013-12-29 15:53:00,78.0,71.0,29.91,WSW,257,7.0,14.0,80,99.99,,,-99.99,,2013-12-29 20:53:00,
2013-12-29 16:22:00,76.0,73.0,29.92,WSW,250,7.0,17.0,90,99.99,,,-99.99,,2013-12-29 21:22:00,
2013-12-29 16:53:00,75.0,74.0,29.92,SW,226,10.0,19.0,96,99.99,,,-99.99,,2013-12-29 21:53:00,
2013-12-29 17:23:00,75.0,75.0,29.93,SW,219,6.0,12.0,100,99.99,,,-99.99,,2013-12-29 22:23:00,
2013-12-29 17:52:00,74.0,74.0,29.93,SW,236,6.0,11.0,100,99.99,,,-99.99,,2013-12-29 22:52:00,
2013-12-29 18:22:00,74.0,74.0,29.95,SW,235,7.0,12.0,100,99.99,,,-99.99,,2013-12-29 23:22:00,
2013-12-29 18:53:00,68.0,68.0,29.96,NW,312,7.0,12.0,100,99.99,,,-99.99,,2013-12-29 23:53:00,
2013-12-29 19:12:00,67.0,67.0,29.96,NNW,328,3.0,11.0,100,99.99,,,-99.99,,2013-12-30 00:12:00,
2013-12-29 19:22:00,66.0,66.0,29.98,North,359,4.0,10.0,100,99.99,,,-99.99,,2013-12-30 00:22:00,
2013-12-29 19:53:00,66.0,66.0,29.98,NNW,336,2.0,4.0,100,99.99,,,-99.99,,2013-12-30 00:53:00,
2013-12-29 20:22:00,65.0,65.0,29.99,NW,318,0.0,3.0,100,99.99,,,-99.99,,2013-12-30 01:22:00,
2013-12-29 20:52:00,65.0,65.0,30.00,WNW,293,3.0,6.0,100,99.99,,,-99.99,,2013-12-30 01:52:00,
2013-12-29 21:22:00,64.0,64.0,29.99,NW,305,5.0,8.0,100,99.99,,,-99.99,,2013-12-30 02:22:00,
2013-12-29 21:52:00,64.0,64.0,30.01,NNW,335,6.0,8.0,100,99.99,,,-99.99,,2013-12-30 02:52:00,
2013-12-29 22:12:00,64.0,64.0,30.01,WNW,297,5.0,8.0,100,99.99,,,-99.99,,2013-12-30 03:12:00,
2013-12-29 22:21:00,64.0,64.0,30.01,WNW,297,5.0,8.0,100,99.99,,,-99.99,,2013-12-30 03:21:00,
2013-12-29 22:54:00,64.0,64.0,30.02,NW,319,4.0,7.0,100,99.99,,,-99.99,,2013-12-30 03:54:00,
2013-12-29 23:23:00,63.0,63.0,30.01,WNW,302,5.0,7.0,100,99.99,,,-99.99,,2013-12-30 04:23:00,
2013-12-29 23:53:00,63.0,63.0,30.01,NW,316,6.0,9.0,100,99.99,,,-99.99,,2013-12-30 04:53:00,